Time;durP1;ratioP1;P1;durP2;ratioP2;P2;SDS_P1;SDS_P2;PMS_P1;PMS_P2;Temp;Humidity;BMP_temperature;BMP_pressure;BME280_temperature;BME280_humidity;BME280_pressure;Samples;Min_cycle;Max_cycle;Signal;HPM_P1;HPM_P2
2022/05/16 11:43:32;;;;;;;12.17;2.20;;;;;;;33.66;16.12;99563.67;1818897;79;22176;-40
2022/05/16 11:46:18;;;;;;;2.15;1.17;;;;;;;32.82;16.38;99556.48;1791255;80;21042;-42
2022/05/16 11:49:23;;;;;;;6.80;1.72;;;;;;;32.28;17.06;99557.95;1792032;80;21057;-41
2022/05/16 11:52:15;;;;;;;2.95;1.40;;;;;;;31.72;17.72;99556.24;1792606;80;20992;-40
2022/05/16 12:00:31;;;;;;;1.40;1.05;;;;;;;31.08;17.95;99550.28;1792708;80;21158;-42
2022/05/16 12:03:08;;;;;;;5.65;1.07;;;;;;;30.33;18.53;99536.92;1791530;80;21101;-40
2022/05/16 12:05:43;;;;;;;3.33;1.30;;;;;;;30.15;18.80;99532.92;1792419;80;21025;-38
2022/05/16 12:08:20;;;;;;;4.78;1.20;;;;;;;30.05;18.87;99532.48;1791848;80;21022;-39
2022/05/16 12:11:06;;;;;;;4.55;1.05;;;;;;;29.91;18.88;99526.72;1790400;80;21156;-40
2022/05/16 12:13:54;;;;;;;5.95;1.30;;;;;;;30.43;18.87;99530.58;1791595;80;21196;-39
2022/05/16 12:16:32;;;;;;;1.17;0.95;;;;;;;30.22;18.84;99520.21;1792248;80;21022;-40
2022/05/16 12:19:12;;;;;;;5.22;1.22;;;;;;;30.03;18.81;99523.22;1792862;80;20971;-38
2022/05/16 12:21:38;;;;;;;4.05;1.25;;;;;;;29.28;19.27;99516.36;1792307;80;21030;-41
2022/05/16 12:24:27;;;;;;;3.30;1.23;;;;;;;29.42;19.39;99518.63;1792971;80;20975;-40
2022/05/16 12:27:05;;;;;;;4.03;1.22;;;;;;;29.33;19.48;99518.48;1791806;80;21030;-39
2022/05/16 12:29:49;;;;;;;2.47;1.17;;;;;;;29.32;19.51;99528.98;1786556;80;21086;-40
2022/05/16 12:32:33;;;;;;;1.62;1.00;;;;;;;29.14;19.35;99521.88;1791882;80;21046;-38
2022/05/16 12:35:04;;;;;;;2.05;0.93;;;;;;;28.81;19.55;99522.52;1789135;80;21585;-39
2022/05/16 12:37:34;;;;;;;3.40;1.32;;;;;;;28.67;19.61;99522.93;1791910;80;21033;-37
2022/05/16 12:40:17;;;;;;;1.52;0.98;;;;;;;27.95;20.61;99524.25;1792064;80;21182;-38
2022/05/16 12:43:08;;;;;;;7.20;1.10;;;;;;;27.77;20.34;99526.00;1779112;80;21055;-42
2022/05/16 12:46:10;;;;;;;5.70;1.12;;;;;;;27.48;20.89;99522.85;1770699;81;21050;-41
2022/05/16 12:49:04;;;;;;;5.00;1.50;;;;;;;27.18;20.91;99524.22;1771797;81;21125;-37
2022/05/16 12:51:44;;;;;;;6.40;1.32;;;;;;;26.70;21.21;99513.44;1772157;81;20976;-41
2022/05/16 12:54:44;;;;;;;6.10;1.30;;;;;;;26.31;21.44;99516.62;1771723;81;21069;-39
2022/05/16 12:57:41;;;;;;;4.30;1.25;;;;;;;26.12;21.50;99518.45;1771410;81;21007;-38
2022/05/16 13:00:30;;;;;;;5.87;1.30;;;;;;;25.85;22.24;99511.22;1771644;81;21481;-38
2022/05/16 13:03:26;;;;;;;7.35;1.62;;;;;;;25.79;22.12;99502.48;1771441;81;21504;-38
2022/05/16 13:06:02;;;;;;;7.37;1.57;;;;;;;25.56;22.53;99497.92;1771498;81;20980;-39
2022/05/16 13:08:49;;;;;;;4.60;1.57;;;;;;;25.46;22.58;99499.98;1771492;81;21509;-40
2022/05/16 13:11:48;;;;;;;5.42;1.10;;;;;;;25.43;22.73;99496.29;1770945;80;21509;-42
2022/05/16 13:14:53;;;;;;;4.67;1.35;;;;;;;25.26;22.95;99499.57;1771071;81;20976;-39
2022/05/16 13:17:44;;;;;;;8.00;1.45;;;;;;;25.03;23.06;99490.03;1771163;81;21070;-39
2022/05/16 13:20:16;;;;;;;10.13;1.50;;;;;;;24.62;24.07;99496.88;1770299;81;21027;-40
2022/05/16 13:22:44;;;;;;;7.55;1.72;;;;;;;24.49;23.76;99484.76;1771622;81;21493;-41
2022/05/16 13:25:12;;;;;;;6.33;1.32;;;;;;;24.44;24.05;99495.69;1771070;80;21000;-41
2022/05/16 13:30:26;;;;;;;4.20;1.55;;;;;;;24.49;23.79;99478.55;1770776;79;21002;-41
2022/05/16 13:32:53;;;;;;;8.85;1.55;;;;;;;24.57;23.71;99481.75;1771579;81;21038;-38
2022/05/16 13:35:36;;;;;;;4.17;1.00;;;;;;;24.76;23.64;99475.14;1771307;81;20987;-38
2022/05/16 13:38:08;;;;;;;4.40;1.40;;;;;;;24.94;23.95;99480.31;1771269;81;20975;-39
2022/05/16 13:40:38;;;;;;;3.25;1.02;;;;;;;24.91;23.92;99472.09;1771599;81;21834;-41
2022/05/16 13:43:27;;;;;;;3.75;1.00;;;;;;;25.00;23.75;99464.33;1773407;81;20991;-39
2022/05/16 13:46:04;;;;;;;2.85;1.20;;;;;;;24.88;24.08;99467.05;1774684;81;20975;-42
2022/05/16 13:48:31;;;;;;;5.05;0.88;;;;;;;25.01;23.84;99471.88;1774554;81;20994;-37
2022/05/16 13:51:00;;;;;;;10.68;3.33;;;;;;;24.79;24.00;99468.09;1774689;81;21010;-38
2022/05/16 13:53:28;;;;;;;1.55;1.22;;;;;;;24.81;24.02;99469.61;1774395;81;21696;-41
2022/05/16 13:55:56;;;;;;;4.97;1.10;;;;;;;24.56;24.07;99463.93;1774541;81;20986;-38
2022/05/16 13:58:23;;;;;;;7.45;1.22;;;;;;;24.56;24.38;99460.77;1774656;81;20974;-40
2022/05/16 14:00:52;;;;;;;3.00;0.98;;;;;;;24.55;24.35;99458.23;1748379;81;20967;-38
2022/05/16 14:03:34;;;;;;;1.98;1.10;;;;;;;24.51;24.36;99451.82;1748478;81;20967;-39
2022/05/16 14:06:02;;;;;;;7.35;0.90;;;;;;;24.28;24.45;99453.53;1774561;81;20955;-38
2022/05/16 14:08:41;;;;;;;6.97;1.57;;;;;;;24.23;24.68;99450.02;1774648;81;20990;-38
2022/05/16 14:11:15;;;;;;;3.08;1.30;;;;;;;24.35;24.49;99458.56;1775986;80;20967;-36
2022/05/16 14:13:46;;;;;;;4.95;1.07;;;;;;;24.42;24.25;99451.50;1780580;80;20983;-39
2022/05/16 14:16:17;;;;;;;3.12;1.20;;;;;;;24.47;24.33;99447.80;1781858;80;21602;-38
2022/05/16 14:18:53;;;;;;;2.52;1.17;;;;;;;24.45;24.27;99450.31;1781509;80;21014;-37
2022/05/16 14:21:27;;;;;;;3.93;1.23;;;;;;;24.53;24.48;99449.00;1790576;80;21558;-40
2022/05/16 14:24:01;;;;;;;2.45;0.90;;;;;;;24.59;24.59;99448.30;1792563;80;21054;-38
2022/05/16 14:26:48;;;;;;;2.95;1.12;;;;;;;24.52;24.33;99442.79;1790694;80;21070;-39
2022/05/16 14:29:29;;;;;;;4.10;1.15;;;;;;;24.36;24.50;99448.64;1791900;80;21065;-38
2022/05/16 14:32:03;;;;;;;4.17;1.05;;;;;;;24.01;24.27;99444.80;1791543;80;21541;-37
2022/05/16 14:34:36;;;;;;;1.75;1.10;;;;;;;23.80;24.53;99446.66;1790531;80;21479;-39
2022/05/16 14:37:07;;;;;;;3.75;1.00;;;;;;;23.73;24.75;99441.06;1791591;80;21046;-40
2022/05/16 14:39:53;;;;;;;3.85;0.80;;;;;;;23.75;24.61;99441.73;1784793;80;21002;-39
2022/05/16 14:42:25;;;;;;;1.07;0.80;;;;;;;23.79;24.75;99441.41;1775236;80;21035;-38
2022/05/16 14:45:07;;;;;;;6.37;1.20;;;;;;;23.84;24.80;99439.94;1747860;82;21038;-40
2022/05/16 14:47:39;;;;;;;3.30;0.90;;;;;;;23.78;24.49;99431.19;1747494;82;21070;-40
2022/05/16 14:50:19;;;;;;;5.10;1.05;;;;;;;23.70;24.68;99427.99;1746391;82;21038;-38
2022/05/16 14:53:06;;;;;;;2.70;1.07;;;;;;;23.62;24.66;99425.80;1746763;82;21798;-39
2022/05/16 14:55:39;;;;;;;1.45;0.93;;;;;;;23.56;24.62;99417.39;1747775;82;21496;-38
2022/05/16 14:58:09;;;;;;;4.95;0.98;;;;;;;23.53;24.67;99416.89;1747388;82;21074;-38
2022/05/16 15:06:06;;;;;;;2.58;1.15;;;;;;;23.07;25.09;99425.83;1746434;82;21074;-37
2022/05/16 15:08:43;;;;;;;3.05;1.10;;;;;;;22.76;25.37;99408.91;1747215;82;21019;-38
2022/05/16 15:11:09;;;;;;;3.50;1.25;;;;;;;22.76;25.37;99408.91;1747481;82;21058;-36
2022/05/16 15:13:35;;;;;;;3.55;1.10;;;;;;;22.73;25.44;99413.24;1747994;82;21348;-38
2022/05/16 15:16:03;;;;;;;3.00;0.65;;;;;;;22.76;25.59;99408.91;1747843;82;21003;-38
2022/05/16 15:18:30;;;;;;;2.50;0.82;;;;;;;22.72;25.44;99411.07;1747906;82;21478;-37
2022/05/16 15:20:58;;;;;;;2.50;0.90;;;;;;;22.74;25.37;99406.38;1748123;82;21007;-38
2022/05/16 15:23:28;;;;;;;8.20;2.08;;;;;;;22.68;25.46;99406.17;1747565;82;21544;-39
2022/05/16 15:25:54;;;;;;;3.00;0.70;;;;;;;22.70;25.46;99401.48;1748086;82;21014;-43
2022/05/16 15:28:20;;;;;;;3.90;1.00;;;;;;;22.79;25.64;99400.52;1747795;82;21037;-37
2022/05/16 15:30:47;;;;;;;2.58;0.70;;;;;;;22.91;25.64;99401.92;1748048;82;20990;-37
2022/05/16 15:33:13;;;;;;;2.40;0.80;;;;;;;22.89;25.05;99391.86;1747888;82;21018;-39
2022/05/16 15:35:43;;;;;;;4.10;1.00;;;;;;;22.80;25.27;99392.83;1747962;82;21485;-36
2022/05/16 15:38:10;;;;;;;1.27;0.80;;;;;;;22.71;25.24;99393.80;1747830;82;20991;-39
2022/05/16 15:40:39;;;;;;;1.50;0.90;;;;;;;22.52;25.25;99398.88;1747851;82;21003;-41
2022/05/16 15:43:07;;;;;;;4.70;0.82;;;;;;;22.29;25.28;99385.20;1747428;82;21019;-37
2022/05/16 15:45:33;;;;;;;8.75;1.02;;;;;;;22.19;25.61;99380.77;1747488;82;20991;-36
2022/05/16 15:48:03;;;;;;;4.95;1.37;;;;;;;21.89;25.33;99381.21;1747903;82;21519;-37
2022/05/16 15:50:30;;;;;;;0.82;0.82;;;;;;;21.98;25.68;99378.43;1747438;82;20991;-36
2022/05/16 15:52:56;;;;;;;5.10;1.35;;;;;;;21.94;25.67;99378.41;1747962;82;20971;-38
2022/05/16 15:55:24;;;;;;;5.58;1.37;;;;;;;22.00;25.82;99377.77;1747735;82;21003;-36
2022/05/16 15:57:50;;;;;;;1.35;0.72;;;;;;;22.01;26.04;99378.60;1747626;82;21018;-37
2022/05/16 16:00:20;;;;;;;7.12;1.00;;;;;;;21.97;25.69;99383.94;1747959;82;21504;-37
2022/05/16 16:02:50;;;;;;;3.45;0.80;;;;;;;21.78;25.63;99379.11;1747880;82;21524;-40
2022/05/16 16:10:50;;;;;;;3.85;0.82;;;;;;;21.69;25.99;99367.16;1747897;82;21011;-40
2022/05/16 16:13:20;;;;;;;2.92;0.80;;;;;;;21.74;26.04;99360.34;1747437;82;20999;-43
2022/05/16 16:15:49;;;;;;;3.30;0.70;;;;;;;21.71;25.90;99361.98;1746794;82;21030;-37
2022/05/16 16:18:18;;;;;;;2.95;1.10;;;;;;;21.67;26.04;99369.98;1747566;82;21038;-41
2022/05/16 16:20:47;;;;;;;1.85;0.80;;;;;;;21.66;26.00;99362.94;1747857;82;21497;-38
2022/05/16 16:23:14;;;;;;;2.67;0.85;;;;;;;21.69;25.92;99368.00;1747643;82;20994;-40
2022/05/16 16:25:42;;;;;;;3.62;0.85;;;;;;;21.74;25.87;99372.39;1747916;82;21030;-39
2022/05/16 16:28:09;;;;;;;;;;;;;;;21.71;25.82;99369.19;1750355;82;20985;-41
2022/05/16 16:30:39;;;;;;;1.00;0.85;;;;;;;21.57;26.11;99377.25;1748193;82;20147;-40
2022/05/16 16:33:09;;;;;;;6.42;0.93;;;;;;;21.60;26.13;99375.61;1748013;82;20987;-41
2022/05/16 16:35:36;;;;;;;1.67;0.90;;;;;;;21.63;25.84;99372.13;1747340;82;20988;-40
2022/05/16 16:38:09;;;;;;;1.67;1.00;;;;;;;21.63;25.96;99371.30;1748238;82;21453;-41
2022/05/16 16:40:39;;;;;;;4.22;0.93;;;;;;;21.65;26.06;99367.97;1747230;82;21025;-38
2022/05/16 16:43:09;;;;;;;5.70;1.02;;;;;;;21.63;25.93;99363.27;1745608;82;21056;-41
2022/05/16 16:45:37;;;;;;;2.42;0.90;;;;;;;21.60;26.04;99359.05;1740127;82;21554;-44
2022/05/16 16:48:03;;;;;;;2.75;1.00;;;;;;;21.61;25.92;99362.08;1741018;82;21012;-37
2022/05/16 16:50:32;;;;;;;1.07;0.90;;;;;;;21.53;25.93;99361.16;1741102;82;21031;-40
2022/05/16 16:58:25;;;;;;;1.80;0.78;;;;;;;21.23;26.09;99344.48;1740505;82;21544;-41
2022/05/16 17:00:51;;;;;;;5.33;1.05;;;;;;;21.17;26.14;99342.39;1741125;82;21011;-41
2022/05/16 17:03:20;;;;;;;4.53;0.80;;;;;;;21.08;25.89;99347.67;1740752;82;21038;-43
2022/05/16 17:05:48;;;;;;;2.52;0.78;;;;;;;20.88;26.08;99350.96;1741015;82;21476;-39
2022/05/16 17:08:18;;;;;;;6.37;0.93;;;;;;;20.82;26.08;99356.05;1740789;82;20987;-39
2022/05/16 17:10:52;;;;;;;2.45;0.68;;;;;;;20.78;26.02;99348.83;1740965;82;21026;-40
2022/05/16 17:13:23;;;;;;;2.58;0.95;;;;;;;20.73;25.94;99356.95;1740200;82;21015;-42
2022/05/16 17:15:53;;;;;;;6.12;0.80;;;;;;;20.73;26.14;99350.27;1740129;82;21071;-41
2022/05/16 17:18:20;;;;;;;3.25;0.90;;;;;;;20.73;26.23;99352.44;1741011;82;21011;-41
2022/05/16 17:20:46;;;;;;;1.42;0.90;;;;;;;20.67;25.91;99355.20;1741388;82;21491;-43
2022/05/16 17:23:16;;;;;;;3.50;1.02;;;;;;;20.67;25.91;99355.20;1741464;82;21031;-38
2022/05/16 17:25:45;;;;;;;4.10;0.78;;;;;;;20.66;26.24;99368.71;1741038;82;21007;-44
2022/05/16 17:28:13;;;;;;;1.10;0.85;;;;;;;20.66;26.35;99365.53;1741420;82;21012;-40
2022/05/16 17:30:40;;;;;;;3.75;1.00;;;;;;;20.63;26.13;99364.52;1750014;81;20968;-41
2022/05/16 17:33:08;;;;;;;2.55;0.95;;;;;;;20.60;26.23;99359.43;1771860;81;21007;-44
2022/05/16 17:35:35;;;;;;;1.62;0.75;;;;;;;20.48;26.25;99365.94;1771414;81;21007;-40
2022/05/16 17:38:04;;;;;;;1.15;0.95;;;;;;;20.41;26.46;99367.52;1771689;81;20996;-39
2022/05/16 17:40:33;;;;;;;2.75;1.17;;;;;;;20.28;26.35;99368.70;1771731;80;20996;-41
2022/05/16 17:42:58;;;;;;;3.00;0.95;;;;;;;20.21;26.45;99380.08;1772541;80;21075;-41
2022/05/16 17:45:25;;;;;;;2.35;0.85;;;;;;;20.14;26.49;99377.17;1778680;81;20999;-39
2022/05/16 17:47:51;;;;;;;3.30;1.10;;;;;;;20.07;26.63;99381.39;1778900;80;20959;-38
2022/05/16 17:50:16;;;;;;;7.00;0.90;;;;;;;20.05;26.75;99382.03;1778959;81;21457;-39
2022/05/16 17:52:42;;;;;;;3.50;0.80;;;;;;;19.96;26.67;99378.39;1778548;80;21520;-39
2022/05/16 17:55:09;;;;;;;4.33;0.80;;;;;;;19.88;26.70;99380.91;1779037;80;20971;-40
2022/05/16 17:57:35;;;;;;;0.95;0.85;;;;;;;19.80;26.91;99376.80;1778459;80;20988;-37
2022/05/16 18:00:07;;;;;;;0.88;0.70;;;;;;;19.76;26.93;99380.23;1776700;81;21535;-41
2022/05/16 18:02:36;;;;;;;2.40;1.00;;;;;;;19.70;27.07;99381.62;1766423;80;21027;-41
2022/05/16 18:05:03;;;;;;;3.90;1.10;;;;;;;19.68;27.18;99385.39;1762895;81;21058;-39
2022/05/16 18:07:28;;;;;;;2.98;0.80;;;;;;;19.63;27.10;99386.30;1762584;80;20999;-41
2022/05/16 18:09:54;;;;;;;5.85;1.45;;;;;;;19.52;27.30;99387.31;1762894;80;21003;-39
2022/05/16 18:15:09;;;;;;;1.60;1.20;;;;;;;19.40;27.53;99397.25;1762850;80;20995;-38
2022/05/16 18:17:35;;;;;;;2.02;1.20;;;;;;;19.33;27.53;99395.62;1762655;80;21034;-40
2022/05/16 18:20:01;;;;;;;2.75;1.30;;;;;;;19.25;27.60;99390.15;1763201;81;21007;-38
2022/05/16 18:22:30;;;;;;;4.12;1.10;;;;;;;19.15;27.65;99391.45;1763479;81;20984;-40
2022/05/16 18:24:59;;;;;;;1.52;1.10;;;;;;;19.04;27.82;99394.23;1763570;81;20987;-40
2022/05/16 18:27:28;;;;;;;1.55;1.10;;;;;;;18.97;27.76;99395.76;1763307;81;20967;-39
2022/05/16 18:29:51;;;;;;;2.47;1.37;;;;;;;18.88;27.93;99396.57;1763080;81;21549;-40
2022/05/16 18:32:17;;;;;;;5.50;1.35;;;;;;;18.84;28.09;99405.83;1763568;80;21018;-39
2022/05/16 18:34:44;;;;;;;3.37;1.42;;;;;;;18.77;28.08;99404.14;1763571;80;20971;-40
2022/05/16 18:37:09;;;;;;;8.73;1.60;;;;;;;18.70;28.34;99409.65;1763769;80;20972;-40
2022/05/16 18:39:35;;;;;;;2.92;1.40;;;;;;;18.67;28.57;99406.78;1762727;80;21023;-40
2022/05/16 18:52:59;;;;;;;12.63;2.33;;;;;;;18.41;29.55;99418.38;1774729;81;21499;-40
2022/05/16 18:55:26;;;;;;;7.95;2.35;;;;;;;18.32;29.72;99420.00;1774922;79;21519;-40
2022/05/16 18:57:59;;;;;;;7.95;2.37;;;;;;;18.24;30.20;99418.46;1774761;79;20955;-40
2022/05/16 19:00:20;;;;;;;8.13;2.58;;;;;;;18.18;30.22;99420.33;1772553;79;21089;-39
2022/05/16 19:02:46;;;;;;;10.82;2.08;;;;;;;18.13;30.48;99421.20;1774580;80;21042;-39
2022/05/16 19:05:13;;;;;;;5.72;2.67;;;;;;;18.10;31.03;99424.11;1774576;81;20990;-39
2022/05/16 19:07:39;;;;;;;7.25;2.47;;;;;;;18.10;30.56;99422.78;1774680;81;20963;-39
2022/05/16 19:10:08;;;;;;;7.97;2.50;;;;;;;18.07;30.70;99432.38;1774685;79;20987;-39
2022/05/16 19:12:36;;;;;;;11.80;2.67;;;;;;;18.01;31.02;99438.56;1774581;81;20959;-39
2022/05/16 19:15:04;;;;;;;5.05;1.98;;;;;;;17.98;31.03;99440.14;1774621;81;20990;-39
2022/05/16 19:17:32;;;;;;;3.65;1.90;;;;;;;17.94;31.33;99434.73;1774654;79;20989;-38
2022/05/16 19:20:03;;;;;;;3.90;1.80;;;;;;;17.89;31.24;99430.27;1774508;81;21448;-40
2022/05/16 19:22:34;;;;;;;6.97;2.00;;;;;;;17.86;31.49;99428.35;1774617;79;21038;-38
2022/05/16 19:24:57;;;;;;;5.72;1.90;;;;;;;17.82;31.49;99426.41;1774012;81;21018;-39
2022/05/16 19:27:23;;;;;;;8.45;2.00;;;;;;;17.77;31.62;99429.92;1774584;79;21014;-40
2022/05/16 19:32:33;;;;;;;4.55;1.98;;;;;;;17.73;31.69;99431.99;1774594;81;20966;-39
2022/05/16 19:34:59;;;;;;;2.27;2.00;;;;;;;17.70;31.85;99428.28;1774640;79;21018;-39
2022/05/16 19:37:26;;;;;;;7.37;1.87;;;;;;;17.71;32.01;99434.44;1774701;81;21456;-38
2022/05/16 19:39:52;;;;;;;3.05;1.80;;;;;;;17.69;32.08;99439.04;1774797;81;20963;-39
2022/05/16 19:42:22;;;;;;;6.70;2.20;;;;;;;17.63;32.15;99435.91;1774680;79;20987;-39
2022/05/16 19:44:50;;;;;;;4.30;2.20;;;;;;;17.62;32.06;99446.17;1766765;81;21042;-39
2022/05/16 19:47:19;;;;;;;3.65;2.20;;;;;;;17.56;32.11;99443.20;1763405;80;20990;-39
2022/05/16 19:49:46;;;;;;;6.17;1.92;;;;;;;17.53;32.20;99446.93;1763470;81;21026;-40
2022/05/16 19:52:14;;;;;;;3.72;1.95;;;;;;;17.50;32.21;99448.99;1763528;80;21026;-39
2022/05/16 19:54:40;;;;;;;5.17;2.37;;;;;;;17.48;32.35;99445.62;1763635;80;20995;-40
2022/05/16 19:57:12;;;;;;;7.25;2.95;;;;;;;17.44;32.35;99442.37;1763452;80;21455;-40
2022/05/16 19:59:38;;;;;;;4.22;2.40;;;;;;;17.42;32.51;99437.66;1763441;81;21003;-40
2022/05/16 20:02:04;;;;;;;5.70;2.22;;;;;;;17.38;32.61;99436.23;1763493;81;21511;-38
2022/05/16 20:04:30;;;;;;;5.80;2.25;;;;;;;17.36;32.73;99439.50;1763674;80;20987;-40
2022/05/16 20:06:56;;;;;;;9.68;2.25;;;;;;;17.35;32.91;99445.78;1763622;81;21030;-40
2022/05/16 20:09:21;;;;;;;3.45;1.75;;;;;;;17.30;33.00;99439.52;1763661;81;21038;-41
2022/05/16 20:11:49;;;;;;;4.95;2.17;;;;;;;17.27;33.09;99441.09;1763610;81;20979;-40
2022/05/16 20:14:17;;;;;;;5.12;2.00;;;;;;;17.23;33.14;99436.50;1763630;81;20975;-39
2022/05/16 20:16:43;;;;;;;7.60;2.10;;;;;;;17.24;33.16;99434.68;1763711;80;20991;-39
2022/05/16 20:19:09;;;;;;;3.15;2.00;;;;;;;17.18;33.15;99434.70;1763615;81;21473;-39
2022/05/16 20:21:38;;;;;;;4.78;2.08;;;;;;;17.15;33.35;99437.59;1763889;81;20971;-39
2022/05/16 20:26:41;;;;;;;9.55;2.00;;;;;;;17.11;33.44;99440.63;1709962;81;20948;-38
2022/05/16 20:29:09;;;;;;;2.33;1.67;;;;;;;17.10;33.39;99437.60;1763688;80;20991;-39
2022/05/16 20:31:37;;;;;;;4.37;1.70;;;;;;;17.09;33.42;99436.77;1763576;81;21539;-39
2022/05/16 20:34:08;;;;;;;5.25;1.75;;;;;;;17.11;33.40;99437.48;1763569;81;21308;-40
2022/05/16 20:36:35;;;;;;;2.27;1.27;;;;;;;17.10;33.42;99436.27;1763634;81;20983;-39
2022/05/16 20:39:02;;;;;;;2.93;1.30;;;;;;;17.09;33.75;99438.09;1763856;81;21003;-40
2022/05/16 20:41:30;;;;;;;6.87;2.60;;;;;;;17.08;33.63;99435.06;1763579;80;21441;-38
2022/05/16 20:43:55;;;;;;;2.45;1.30;;;;;;;17.06;33.41;99438.33;1766044;81;21481;-38
2022/05/16 20:46:22;;;;;;;8.20;1.57;;;;;;;17.06;33.34;99433.88;1774733;81;20971;-39
2022/05/16 20:48:50;;;;;;;5.50;1.50;;;;;;;17.04;33.46;99430.97;1774995;81;21111;-39
2022/05/16 20:51:16;;;;;;;3.80;1.80;;;;;;;17.02;33.46;99443.05;1774495;81;21010;-39
2022/05/16 20:53:41;;;;;;;4.67;1.67;;;;;;;17.00;33.53;99431.70;1774705;81;21199;-39
2022/05/16 20:56:07;;;;;;;3.02;1.52;;;;;;;16.97;33.60;99440.39;1774687;79;20986;-39
2022/05/16 20:58:34;;;;;;;5.05;1.75;;;;;;;16.96;33.55;99445.36;1774712;81;21037;-39
2022/05/16 21:01:03;;;;;;;2.50;1.60;;;;;;;16.93;33.75;99446.92;1774829;79;20982;-39
2022/05/16 21:03:29;;;;;;;4.40;1.70;;;;;;;16.90;33.66;99446.70;1774710;79;20951;-39
2022/05/16 21:05:54;;;;;;;4.20;1.30;;;;;;;16.88;33.67;99450.80;1774770;80;20990;-39
2022/05/16 21:08:20;;;;;;;4.72;1.67;;;;;;;16.83;33.87;99450.80;1774710;79;20983;-39
2022/05/16 21:10:47;;;;;;;3.52;1.45;;;;;;;16.83;33.98;99452.97;1774646;81;20990;-39
2022/05/16 21:13:14;;;;;;;3.80;1.43;;;;;;;16.82;33.88;99443.27;1774922;81;20940;-38
2022/05/16 21:15:41;;;;;;;;;;;;;;;16.82;33.82;99437.95;1777292;81;21468;-39
2022/05/16 21:18:09;;;;;;;4.20;1.55;;;;;;;16.77;34.35;99446.79;1774840;79;20402;-39
2022/05/16 21:20:35;;;;;;;1.77;1.30;;;;;;;16.77;33.72;99444.13;1774843;81;21506;-38
2022/05/16 21:23:01;;;;;;;4.97;1.32;;;;;;;16.75;33.81;99445.20;1774848;79;20982;-39
2022/05/16 21:25:27;;;;;;;2.62;1.40;;;;;;;16.73;33.70;99440.00;1773927;79;21070;-40
2022/05/16 21:27:54;;;;;;;7.65;1.65;;;;;;;16.69;33.93;99439.89;1773519;81;21054;-39
2022/05/16 21:30:25;;;;;;;2.65;1.40;;;;;;;16.70;33.84;99441.11;1774246;79;21046;-38
2022/05/16 21:32:51;;;;;;;1.62;1.50;;;;;;;16.69;33.82;99449.19;1774090;81;21554;-38
2022/05/16 21:35:18;;;;;;;4.70;1.70;;;;;;;16.70;33.57;99442.43;1774758;81;21522;-39
2022/05/16 21:37:44;;;;;;;3.98;1.45;;;;;;;16.69;33.67;99435.91;1774685;79;20991;-39
2022/05/16 21:40:15;;;;;;;1.55;1.20;;;;;;;16.69;33.40;99441.22;1774782;81;20959;-39
2022/05/16 21:42:41;;;;;;;4.17;1.25;;;;;;;16.66;33.67;99434.81;1774929;80;21005;-39
2022/05/16 21:45:28;;;;;;;1.27;1.15;;;;;;;16.67;33.70;99443.16;1768088;81;21015;-38
2022/05/16 21:47:43;;;;;;;5.05;1.10;;;;;;;16.67;33.63;99443.16;1754752;81;20956;-39
2022/05/16 21:50:08;;;;;;;1.77;1.20;;;;;;;16.68;33.46;99443.50;1763345;80;21421;-39
2022/05/16 21:52:34;;;;;;;3.35;1.40;;;;;;;16.68;33.40;99442.17;1763168;80;21023;-39
2022/05/16 21:55:00;;;;;;;2.58;1.40;;;;;;;16.66;33.27;99435.68;1762427;80;21119;-40
2022/05/16 21:57:26;;;;;;;3.05;1.50;;;;;;;16.63;33.20;99441.22;1762281;81;21025;-39
2022/05/16 21:59:53;;;;;;;3.72;1.60;;;;;;;16.61;33.54;99443.64;1762327;81;21026;-39
2022/05/16 22:02:20;;;;;;;3.17;1.32;;;;;;;16.61;33.45;99447.63;1762502;81;21547;-39
2022/05/16 22:04:46;;;;;;;1.32;1.15;;;;;;;16.58;33.52;99449.19;1763642;80;20971;-39
2022/05/16 22:07:13;;;;;;;5.17;1.22;;;;;;;16.56;33.47;99449.30;1763522;81;20995;-40
2022/05/16 22:09:40;;;;;;;3.75;0.98;;;;;;;16.55;33.49;99444.10;1763582;81;21033;-39
2022/05/16 22:12:09;;;;;;;4.08;1.50;;;;;;;16.53;33.68;99442.05;1763824;81;21548;-39
2022/05/16 22:14:35;;;;;;;3.15;1.25;;;;;;;16.49;33.47;99432.99;1763061;81;21030;-38
2022/05/16 22:17:00;;;;;;;1.67;1.17;;;;;;;16.45;33.62;99434.20;1763566;80;20963;-38
2022/05/16 22:19:26;;;;;;;1.50;1.20;;;;;;;16.46;33.77;99431.06;1763522;80;21022;-39
2022/05/16 22:21:52;;;;;;;1.05;0.95;;;;;;;16.44;33.63;99432.50;1763511;80;20967;-39
2022/05/16 22:24:19;;;;;;;2.42;1.10;;;;;;;16.42;33.72;99434.42;1763497;81;20979;-39
2022/05/16 22:26:46;;;;;;;2.40;1.27;;;;;;;16.40;33.72;99436.36;1763742;80;20987;-39
2022/05/16 22:29:13;;;;;;;1.80;0.90;;;;;;;16.39;33.73;99435.14;1763556;81;21660;-39
2022/05/16 22:31:40;;;;;;;0.90;0.83;;;;;;;16.36;33.85;99426.95;1763748;80;20987;-40
2022/05/16 22:34:07;;;;;;;1.22;1.12;;;;;;;16.36;33.73;99426.95;1763670;80;20986;-39
2022/05/16 22:36:33;;;;;;;2.17;1.20;;;;;;;16.36;33.61;99412.84;1763979;80;20963;-39
2022/05/16 22:38:59;;;;;;;1.30;1.07;;;;;;;16.37;33.61;99415.84;1763870;81;21500;-39
2022/05/16 22:41:25;;;;;;;1.10;0.93;;;;;;;16.36;33.74;99413.69;1763579;81;20982;-39
2022/05/16 22:43:54;;;;;;;1.25;1.07;;;;;;;16.36;33.57;99416.34;1763551;81;20981;-39
2022/05/16 22:46:20;;;;;;;1.72;0.90;;;;;;;16.31;33.65;99422.47;1763153;81;21022;-39
2022/05/16 22:48:45;;;;;;;1.85;0.90;;;;;;;16.30;33.86;99432.75;1763501;80;20983;-39
2022/05/16 22:51:12;;;;;;;1.87;0.70;;;;;;;16.27;33.86;99432.97;1763425;81;21142;-39
2022/05/16 22:53:37;;;;;;;3.37;0.90;;;;;;;16.24;34.16;99433.20;1763573;80;20952;-39
2022/05/16 22:56:04;;;;;;;4.28;1.05;;;;;;;16.22;33.98;99434.63;1763590;80;21463;-39
2022/05/16 22:58:30;;;;;;;1.10;0.77;;;;;;;16.20;33.86;99435.73;1763815;81;21527;-39
2022/05/16 23:00:57;;;;;;;2.80;1.20;;;;;;;16.15;34.07;99431.25;1763576;81;21018;-38
2022/05/16 23:03:31;;;;;;;2.07;1.10;;;;;;;16.11;33.96;99439.43;1763750;81;20966;-39
2022/05/16 23:06:12;;;;;;;3.65;1.35;;;;;;;16.05;34.16;99426.64;1763383;81;21421;-39
2022/05/16 23:08:40;;;;;;;3.33;1.10;;;;;;;16.02;34.26;99432.17;1763499;81;21023;-40
2022/05/16 23:11:08;;;;;;;5.28;1.40;;;;;;;16.00;34.30;99438.56;1763522;81;21484;-40
2022/05/16 23:13:35;;;;;;;1.77;1.00;;;;;;;15.95;34.51;99438.90;1763557;81;20975;-40
2022/05/16 23:16:02;;;;;;;1.80;1.10;;;;;;;15.91;34.78;99432.98;1763636;81;21470;-39
2022/05/16 23:18:28;;;;;;;4.03;1.12;;;;;;;15.87;35.04;99425.39;1763656;80;20976;-39
2022/05/16 23:20:55;;;;;;;2.30;1.40;;;;;;;15.88;34.76;99424.41;1763487;81;20982;-39
2022/05/16 23:23:21;;;;;;;4.12;1.47;;;;;;;15.88;34.79;99431.03;1763487;80;21030;-39
2022/05/16 23:25:47;;;;;;;1.30;0.98;;;;;;;15.87;34.80;99428.04;1763497;80;20971;-40
2022/05/16 23:28:15;;;;;;;2.87;1.35;;;;;;;15.88;35.06;99427.06;1763467;80;20986;-39
2022/05/16 23:30:41;;;;;;;1.72;1.05;;;;;;;15.88;35.07;99421.30;1763525;81;20979;-39
2022/05/16 23:33:08;;;;;;;1.42;1.10;;;;;;;15.87;35.25;99420.92;1763417;80;20983;-40
2022/05/16 23:35:36;;;;;;;2.55;1.40;;;;;;;15.90;35.16;99423.84;1763597;81;21434;-39
2022/05/16 23:38:02;;;;;;;6.35;1.57;;;;;;;15.88;35.28;99420.43;1763669;81;21015;-39
2022/05/16 23:40:29;;;;;;;3.17;1.25;;;;;;;15.89;35.10;99418.16;1763514;81;21006;-40
2022/05/16 23:42:56;;;;;;;;;;;;;;;15.90;35.10;99411.91;1766097;81;20975;-39
2022/05/16 23:45:22;;;;;;;1.85;1.20;;;;;;;15.88;35.60;99406.72;1768231;80;20113;-39
2022/05/16 23:47:47;;;;;;;1.30;1.20;;;;;;;15.92;34.74;99404.67;1774607;81;20974;-40
2022/05/16 23:50:14;;;;;;;1.52;1.12;;;;;;;15.91;34.77;99409.11;1774647;81;20983;-39
2022/05/16 23:52:40;;;;;;;3.15;1.05;;;;;;;15.90;34.84;99398.65;1774532;79;20983;-39
2022/05/16 23:55:11;;;;;;;3.92;1.02;;;;;;;15.91;34.91;99396.34;1774679;81;20955;-40
2022/05/16 23:57:37;;;;;;;3.67;0.98;;;;;;;15.89;34.97;99397.78;1774605;81;21038;-39
